Myerstown, Pennsylvania
Current Conditions -  °F | °C
As of 7:58 PM on Friday 19 Dec 2014 (Local Time) from KMUI Reporting Station
Clear Clear  
Wind Chill: 34°   Ceiling: Unl
Heat Index: 34°   Visibility: 10mi
Dew Point: 20°   Wind: 2mph
Humidity: 57%   Direction: NA
Pressure: 30.17"   Gusts: NA
Location:  40.37°N, 76.3°W
Report Text: KMUI 200058Z AUTO VRB02KT 10SM CLR 01/M07 A3017 RMK AO2 SLP224 T00091067
Loading
Personal Weather Stations






























Interactive Weather Map New forecast layout! Learn more

10-Day Weather Forecast

Advertisements
Track Severe Weather on mobile